YGAT weather

CLOSED Gatton Campus Airport
Gatton, Queensland, Australia

Public forecast

Using degrees Celsius for public forecast. Weather courtesy of forecast.io.

METAR (pilot weather report)

Closest report is RAAF Base Amberley, 20.3 nm (37.7 km) ESE. Retrieved 2019/02/19 01:00 UTC (14 minutes ago):

YAMB 190100Z 31004KT 260V030 9999 FEW048 31/18 Q1008

TAF (pilot weather forecast)

Forecast is more than 12 hours old.

Closest forecast is RAAF Base Amberley, 20.3 nm (37.7 km) ESE. Retrieved 2019/02/18 00:00 UTC (1 day ago):

TAF YAMB 182259Z 1900/1918 VRB05KT 9999 FEW045 FM190500 06015KT CAVOK FM191000 09008KT 9999 FEW020